Time;durP1;ratioP1;P1;durP2;ratioP2;P2;SDS_P1;SDS_P2;PMS_P1;PMS_P2;Temp;Humidity;BMP_temperature;BMP_pressure;BME280_temperature;BME280_humidity;BME280_pressure;Samples;Min_cycle;Max_cycle;Signal;HPM_P1;HPM_P2
2022/01/13 00:00:22;;;;;;;10.20;9.90;;;0.30;99.90;;;;;;5083436;28;20249;-81
2022/01/13 00:02:50;;;;;;;10.10;9.80;;;0.40;99.90;;;;;;5083495;28;20241;-81
2022/01/13 00:05:26;;;;;;;9.80;9.50;;;0.40;99.90;;;;;;5085079;28;20236;-81
2022/01/13 00:08:00;;;;;;;9.80;9.50;;;0.40;99.90;;;;;;5095386;28;20217;-80
2022/01/13 00:10:30;;;;;;;9.87;9.57;;;0.50;99.90;;;;;;5088071;28;20238;-81
2022/01/13 00:13:02;;;;;;;9.90;9.60;;;0.50;99.90;;;;;;5085530;28;20218;-81
2022/01/13 00:15:40;;;;;;;9.70;9.40;;;0.50;99.90;;;;;;5084898;28;20272;-81
2022/01/13 00:18:15;;;;;;;9.80;9.50;;;0.50;99.90;;;;;;5085920;28;20233;-82
2022/01/13 00:21:13;;;;;;;9.70;9.40;;;0.50;99.90;;;;;;5085951;28;20252;-82
2022/01/13 00:23:52;;;;;;;9.67;9.37;;;0.60;99.90;;;;;;5089633;28;20241;-82
2022/01/13 00:26:28;;;;;;;9.50;9.20;;;0.60;99.90;;;;;;5092773;28;20237;-82
2022/01/13 00:28:59;;;;;;;9.63;9.33;;;0.50;99.90;;;;;;5092799;28;20221;-81
2022/01/13 00:31:36;;;;;;;9.57;9.27;;;0.60;99.90;;;;;;5098755;28;20233;-82
2022/01/13 00:34:12;;;;;;;9.70;9.40;;;0.60;99.90;;;;;;5106688;28;20228;-81
2022/01/13 00:36:41;;;;;;;9.80;9.50;;;0.60;99.90;;;;;;5107062;28;20244;-82
2022/01/13 00:39:12;;;;;;;9.57;9.27;;;0.60;99.90;;;;;;5106756;28;20221;-82
2022/01/13 00:41:42;;;;;;;9.70;9.40;;;0.50;99.90;;;;;;5106925;28;20241;-81
2022/01/13 00:44:10;;;;;;;10.07;9.77;;;0.50;99.90;;;;;;5107347;28;20243;-82
2022/01/13 00:46:49;;;;;;;9.67;9.37;;;0.40;99.90;;;;;;5105413;28;20225;-82
2022/01/13 00:49:17;;;;;;;9.80;9.50;;;0.40;99.90;;;;;;5109633;28;20228;-81
2022/01/13 00:51:44;;;;;;;9.77;9.47;;;0.40;99.90;;;;;;5181633;22;20245;-85
2022/01/13 00:54:13;;;;;;;9.80;9.50;;;0.40;99.90;;;;;;5121849;28;20205;-85
2022/01/13 00:56:42;;;;;;;9.70;9.40;;;0.40;99.90;;;;;;5120970;28;20285;-85
2022/01/13 00:59:13;;;;;;;9.70;9.40;;;0.40;99.90;;;;;;5120563;28;20289;-85
2022/01/13 01:01:43;;;;;;;9.70;9.40;;;0.40;99.90;;;;;;5119126;28;20237;-85
2022/01/13 01:04:11;;;;;;;9.73;9.43;;;0.50;99.90;;;;;;5117477;28;20255;-85
2022/01/13 01:06:40;;;;;;;9.57;9.27;;;0.50;99.90;;;;;;5113420;28;20240;-85
2022/01/13 01:09:14;;;;;;;9.60;9.30;;;0.60;99.90;;;;;;5109238;28;20248;-85
2022/01/13 01:11:46;;;;;;;9.60;9.30;;;0.60;99.90;;;;;;5103459;28;20237;-84
2022/01/13 01:14:15;;;;;;;9.70;9.40;;;0.60;99.90;;;;;;5104216;28;20328;-84
2022/01/13 01:16:43;;;;;;;9.60;9.30;;;0.70;99.90;;;;;;5103626;28;20237;-85
2022/01/13 01:19:13;;;;;;;9.80;9.50;;;0.70;99.90;;;;;;5103525;28;20221;-85
2022/01/13 01:22:15;;;;;;;9.40;9.10;;;0.60;99.90;;;;;;5103043;28;20230;-85
2022/01/13 01:25:02;;;;;;;9.73;9.43;;;0.60;99.90;;;;;;5102831;28;20228;-85
2022/01/13 01:27:35;;;;;;;9.40;9.10;;;0.60;99.90;;;;;;5103994;28;20236;-85
2022/01/13 01:30:10;;;;;;;9.50;9.20;;;0.50;99.90;;;;;;5103454;28;20221;-85
2022/01/13 01:32:39;;;;;;;9.50;9.20;;;0.40;99.90;;;;;;5102565;28;20229;-85
2022/01/13 01:35:13;;;;;;;9.60;9.30;;;0.40;99.90;;;;;;5103345;28;20225;-85
2022/01/13 01:37:42;;;;;;;9.90;9.60;;;0.30;99.90;;;;;;5103427;28;20256;-85
2022/01/13 01:40:13;;;;;;;9.80;9.50;;;0.30;99.90;;;;;;5103435;28;20241;-84
2022/01/13 01:42:44;;;;;;;9.60;9.30;;;0.20;99.90;;;;;;5103504;28;20264;-85
2022/01/13 01:45:13;;;;;;;9.57;9.27;;;0.20;99.90;;;;;;5103198;28;20229;-85
2022/01/13 01:47:43;;;;;;;9.60;9.30;;;0.20;99.90;;;;;;5103166;28;20237;-85
2022/01/13 01:50:18;;;;;;;9.63;9.33;;;0.20;99.90;;;;;;5103049;28;20276;-85
2022/01/13 01:52:47;;;;;;;9.40;9.10;;;0.20;99.90;;;;;;5102583;28;20240;-85
2022/01/13 01:55:16;;;;;;;9.60;9.30;;;0.20;99.90;;;;;;5103571;28;20229;-85
2022/01/13 01:57:49;;;;;;;9.40;9.10;;;0.20;99.90;;;;;;5103141;28;20315;-85
2022/01/13 02:00:27;;;;;;;9.20;8.90;;;0.20;99.90;;;;;;5102618;28;20237;-85
2022/01/13 02:02:56;;;;;;;9.27;8.97;;;0.20;99.90;;;;;;5102690;28;20324;-85
2022/01/13 02:05:24;;;;;;;9.50;9.20;;;0.20;99.90;;;;;;5103617;28;20248;-85
2022/01/13 02:07:52;;;;;;;9.30;9.00;;;0.20;99.90;;;;;;5103856;28;20233;-84
2022/01/13 02:10:20;;;;;;;9.37;9.07;;;0.20;99.90;;;;;;5102794;28;20226;-85
2022/01/13 02:12:53;;;;;;;9.80;9.50;;;0.20;99.90;;;;;;5103246;28;20233;-85
2022/01/13 02:15:33;;;;;;;9.80;9.50;;;0.20;99.90;;;;;;5103714;28;20229;-85
2022/01/13 02:18:05;;;;;;;9.60;9.30;;;0.20;99.90;;;;;;5102806;28;20287;-85
2022/01/13 02:20:51;;;;;;;9.80;9.50;;;0.10;99.90;;;;;;5103245;28;20232;-84
2022/01/13 02:23:37;;;;;;;9.90;9.60;;;0.10;99.90;;;;;;5102436;28;20233;-84
2022/01/13 02:26:09;;;;;;;10.00;9.70;;;0.10;99.90;;;;;;5102876;28;20233;-85
2022/01/13 02:28:38;;;;;;;10.37;10.07;;;0.10;99.90;;;;;;5102364;28;20237;-84
2022/01/13 02:31:06;;;;;;;10.27;9.97;;;0.10;99.90;;;;;;5102764;28;20229;-84
2022/01/13 02:33:35;;;;;;;10.10;9.80;;;0.20;99.90;;;;;;5102346;28;20229;-84
2022/01/13 02:36:06;;;;;;;10.00;9.70;;;0.20;99.90;;;;;;5102854;28;20229;-85
2022/01/13 02:38:34;;;;;;;10.20;9.90;;;0.20;99.90;;;;;;5102308;28;20287;-84
2022/01/13 02:41:03;;;;;;;9.77;9.47;;;0.30;99.90;;;;;;5103452;28;20240;-85
2022/01/13 02:43:33;;;;;;;9.77;9.47;;;0.30;99.90;;;;;;5101679;28;20233;-84
2022/01/13 02:46:08;;;;;;;10.20;9.90;;;0.30;99.90;;;;;;5102709;27;20726;-85
2022/01/13 02:48:37;;;;;;;10.10;9.80;;;0.30;99.90;;;;;;5101793;28;20255;-84
2022/01/13 02:51:06;;;;;;;10.50;10.20;;;0.40;99.90;;;;;;5102219;28;20226;-84
2022/01/13 02:53:34;;;;;;;10.03;9.73;;;0.40;99.90;;;;;;5101591;28;21000;-84
2022/01/13 02:56:04;;;;;;;10.00;9.70;;;0.40;99.90;;;;;;5104629;28;20236;-85
2022/01/13 02:58:33;;;;;;;10.30;10.00;;;0.50;99.90;;;;;;5117977;27;20296;-85
2022/01/13 03:01:02;;;;;;;9.97;9.67;;;0.40;99.90;;;;;;5113936;27;20214;-85
2022/01/13 03:03:32;;;;;;;9.83;9.53;;;0.40;99.90;;;;;;5105099;28;20292;-85
2022/01/13 03:06:07;;;;;;;9.90;9.60;;;0.40;99.90;;;;;;5104368;28;20226;-85
2022/01/13 03:08:35;;;;;;;9.90;9.60;;;0.50;99.90;;;;;;5108038;28;20236;-85
2022/01/13 03:11:03;;;;;;;9.93;9.63;;;0.40;99.90;;;;;;5111106;28;20224;-84
2022/01/13 03:13:31;;;;;;;9.90;9.60;;;0.40;99.90;;;;;;5120434;27;20233;-85
2022/01/13 03:15:59;;;;;;;10.00;9.70;;;0.30;99.90;;;;;;5120869;27;20229;-85
2022/01/13 03:18:26;;;;;;;10.20;9.90;;;0.20;99.90;;;;;;5120659;27;20240;-85
2022/01/13 03:20:54;;;;;;;10.03;9.73;;;0.20;99.90;;;;;;5118124;28;20220;-85
2022/01/13 03:23:24;;;;;;;10.20;9.90;;;0.10;99.90;;;;;;5107116;28;20226;-84
2022/01/13 03:25:51;;;;;;;10.07;9.77;;;0.00;99.90;;;;;;5106455;28;20228;-85
2022/01/13 03:28:29;;;;;;;10.10;9.80;;;0.00;99.90;;;;;;5103668;28;20296;-85
2022/01/13 03:30:59;;;;;;;10.40;10.10;;;0.00;99.90;;;;;;5103739;28;20284;-84
2022/01/13 03:33:28;;;;;;;9.87;9.57;;;-0.10;99.90;;;;;;5104026;28;20332;-84
2022/01/13 03:35:56;;;;;;;10.20;9.90;;;-0.10;99.90;;;;;;5105268;28;20283;-85
2022/01/13 03:38:27;;;;;;;10.10;9.80;;;0.00;99.90;;;;;;5101828;28;20247;-85
2022/01/13 03:40:55;;;;;;;10.00;9.70;;;0.00;99.90;;;;;;5102534;28;20210;-84
2022/01/13 03:43:23;;;;;;;9.87;9.57;;;0.10;99.90;;;;;;5100358;28;20983;-84
2022/01/13 03:45:51;;;;;;;10.00;9.70;;;0.10;99.90;;;;;;5099948;28;20225;-85
2022/01/13 03:48:19;;;;;;;10.00;9.70;;;0.10;99.90;;;;;;5100104;28;20240;-84
2022/01/13 03:50:47;;;;;;;9.97;9.67;;;0.00;99.90;;;;;;5102447;28;20234;-85
2022/01/13 03:54:22;;;;;;;10.10;9.80;;;0.10;99.90;;;;;;5101005;28;20244;-84
2022/01/13 03:57:58;;;;;;;10.13;9.83;;;0.00;99.90;;;;;;5099911;28;20233;-84
2022/01/13 04:01:32;;;;;;;10.50;10.20;;;0.00;99.90;;;;;;5078773;28;20291;-84
2022/01/13 04:04:00;;;;;;;10.30;10.00;;;0.00;99.90;;;;;;5099547;28;20230;-85
2022/01/13 04:06:43;;;;;;;10.40;10.10;;;0.10;99.90;;;;;;5099941;28;20287;-84
2022/01/13 04:09:38;;;;;;;10.40;10.10;;;0.00;99.90;;;;;;5099681;28;20237;-85
2022/01/13 04:12:10;;;;;;;10.40;10.10;;;0.00;99.90;;;;;;5100165;28;20289;-84
2022/01/13 04:14:45;;;;;;;10.40;10.10;;;0.00;99.90;;;;;;5100153;28;20248;-85
2022/01/13 04:17:15;;;;;;;10.17;9.87;;;0.00;99.90;;;;;;5100212;28;20240;-84
2022/01/13 04:19:44;;;;;;;10.47;10.17;;;-0.10;99.90;;;;;;5101490;28;20222;-84
2022/01/13 04:22:12;;;;;;;10.20;9.90;;;-0.10;99.90;;;;;;5099334;28;20244;-84
2022/01/13 04:24:45;;;;;;;10.23;9.93;;;-0.10;99.90;;;;;;5100072;28;20233;-84
2022/01/13 04:27:24;;;;;;;10.33;10.03;;;-0.10;99.90;;;;;;5100192;28;20258;-84
2022/01/13 04:30:11;;;;;;;10.60;10.30;;;-0.10;99.90;;;;;;5100363;28;20237;-84
2022/01/13 04:32:39;;;;;;;10.13;9.83;;;-0.10;99.90;;;;;;5099587;28;20654;-84
2022/01/13 04:35:09;;;;;;;10.30;10.00;;;-0.10;99.90;;;;;;5100465;28;20221;-84
2022/01/13 04:37:37;;;;;;;10.40;10.10;;;-0.10;99.90;;;;;;5100762;28;20303;-84
2022/01/13 04:40:08;;;;;;;10.10;9.80;;;0.00;99.90;;;;;;5100585;28;20241;-85
2022/01/13 04:42:42;;;;;;;10.33;10.03;;;0.00;99.90;;;;;;5099713;28;20240;-85
2022/01/13 04:45:11;;;;;;;10.13;9.83;;;0.00;99.90;;;;;;5100900;28;20226;-84
2022/01/13 04:47:39;;;;;;;10.10;9.80;;;0.10;99.90;;;;;;5100864;28;20302;-84
2022/01/13 04:50:08;;;;;;;10.10;9.80;;;0.20;99.90;;;;;;5100116;28;20233;-84
2022/01/13 04:52:36;;;;;;;10.00;9.70;;;0.20;99.90;;;;;;5099156;28;20275;-85
2022/01/13 04:55:10;;;;;;;10.07;9.77;;;0.30;99.90;;;;;;5105276;27;20205;-85
2022/01/13 04:57:39;;;;;;;10.27;9.97;;;0.30;99.90;;;;;;5108509;27;20230;-84
2022/01/13 05:00:10;;;;;;;10.37;10.07;;;0.40;99.90;;;;;;5104014;28;20229;-85
2022/01/13 05:02:38;;;;;;;10.30;10.00;;;0.40;99.90;;;;;;5103339;28;20221;-84
2022/01/13 05:05:10;;;;;;;10.20;9.90;;;0.40;99.90;;;;;;5101704;28;20232;-84
2022/01/13 05:07:37;;;;;;;10.33;10.03;;;0.50;99.90;;;;;;5102323;28;20229;-84
2022/01/13 05:10:06;;;;;;;10.53;10.23;;;0.50;99.90;;;;;;5100593;28;20259;-84
2022/01/13 05:12:39;;;;;;;10.30;10.00;;;0.50;99.90;;;;;;5100856;28;20238;-85
2022/01/13 05:15:14;;;;;;;10.37;10.07;;;0.50;99.90;;;;;;5101080;28;21048;-85
2022/01/13 05:20:38;;;;;;;10.60;10.30;;;0.50;99.90;;;;;;5095002;28;20228;-85
2022/01/13 05:23:09;;;;;;;10.47;10.17;;;0.50;99.90;;;;;;5099857;28;20233;-84
2022/01/13 05:25:37;;;;;;;10.27;9.97;;;0.50;99.90;;;;;;5099783;28;20788;-84
2022/01/13 05:28:05;;;;;;;10.57;10.27;;;0.50;99.90;;;;;;5099305;28;20233;-84
2022/01/13 05:30:35;;;;;;;10.50;10.20;;;0.40;99.90;;;;;;5100066;28;20291;-85
2022/01/13 05:33:03;;;;;;;10.40;10.10;;;0.40;99.90;;;;;;5099211;28;20225;-84
2022/01/13 05:35:31;;;;;;;10.33;10.03;;;0.30;99.90;;;;;;5101111;28;20287;-85
2022/01/13 05:37:59;;;;;;;10.30;10.00;;;0.30;99.90;;;;;;5102074;28;20229;-84
2022/01/13 05:40:27;;;;;;;10.17;9.87;;;0.30;99.90;;;;;;5104223;28;20229;-86
2022/01/13 05:42:55;;;;;;;10.50;10.20;;;0.30;99.90;;;;;;5102248;28;20229;-84
2022/01/13 05:45:28;;;;;;;10.30;10.00;;;0.30;99.90;;;;;;5102925;28;20210;-84
2022/01/13 05:48:00;;;;;;;10.50;10.20;;;0.30;99.90;;;;;;5103599;28;20222;-85
2022/01/13 05:50:30;;;;;;;10.10;9.80;;;0.40;99.90;;;;;;5102406;28;20308;-85
2022/01/13 05:52:58;;;;;;;10.47;10.17;;;0.40;99.90;;;;;;5102191;28;20299;-84
2022/01/13 05:55:26;;;;;;;10.60;10.30;;;0.40;99.90;;;;;;5102941;28;20240;-85
2022/01/13 05:57:54;;;;;;;10.50;10.20;;;0.50;99.90;;;;;;5102449;28;20229;-85
2022/01/13 06:00:24;;;;;;;10.50;10.20;;;0.50;99.90;;;;;;5102666;28;20280;-84
2022/01/13 06:02:52;;;;;;;10.50;10.20;;;0.50;99.90;;;;;;5102313;28;20232;-84
2022/01/13 06:05:22;;;;;;;10.73;10.43;;;0.50;99.90;;;;;;5105214;28;20201;-84
2022/01/13 06:07:50;;;;;;;10.57;10.27;;;0.60;99.90;;;;;;5105769;28;20217;-84
2022/01/13 06:10:20;;;;;;;10.50;10.20;;;0.60;99.90;;;;;;5111840;28;20237;-85
2022/01/13 06:12:49;;;;;;;10.30;10.00;;;0.60;99.90;;;;;;5121600;27;20225;-86
2022/01/13 06:15:20;;;;;;;10.50;10.20;;;0.70;99.90;;;;;;5123190;27;20221;-85
2022/01/13 06:17:51;;;;;;;10.40;10.10;;;0.70;99.90;;;;;;5122405;27;20210;-85
2022/01/13 06:20:22;;;;;;;10.60;10.30;;;0.70;99.90;;;;;;5116534;28;20252;-85
2022/01/13 06:22:52;;;;;;;10.43;10.13;;;0.70;99.90;;;;;;5109927;28;20540;-84
2022/01/13 06:25:20;;;;;;;10.37;10.07;;;0.70;99.90;;;;;;5102595;28;20216;-84
2022/01/13 06:27:48;;;;;;;10.30;10.00;;;0.70;99.90;;;;;;5102248;28;20275;-84
2022/01/13 06:30:17;;;;;;;10.30;10.00;;;0.70;99.90;;;;;;5104460;28;20241;-86
2022/01/13 06:32:46;;;;;;;10.07;9.77;;;0.70;99.90;;;;;;5103767;28;20233;-84
2022/01/13 06:35:14;;;;;;;10.20;9.90;;;0.70;99.90;;;;;;5103402;28;20222;-84
2022/01/13 06:37:45;;;;;;;9.80;9.50;;;0.70;99.90;;;;;;5103545;28;20656;-85
2022/01/13 06:40:15;;;;;;;10.33;10.03;;;0.80;99.90;;;;;;5103116;28;20287;-84
2022/01/13 06:42:43;;;;;;;10.17;9.87;;;0.80;99.90;;;;;;5102208;28;20275;-85
2022/01/13 06:45:13;;;;;;;9.90;9.60;;;0.80;99.90;;;;;;5102578;28;20244;-84
2022/01/13 06:47:42;;;;;;;9.90;9.60;;;0.80;99.90;;;;;;5103199;28;20259;-85
2022/01/13 06:50:12;;;;;;;10.00;9.70;;;0.80;99.90;;;;;;5102437;28;20249;-85
2022/01/13 06:52:40;;;;;;;10.00;9.70;;;0.80;99.90;;;;;;5131987;22;20238;-79
2022/01/13 06:55:15;;;;;;;10.10;9.80;;;0.80;99.90;;;;;;5130188;28;20221;-80
2022/01/13 06:57:43;;;;;;;10.33;10.03;;;0.80;99.90;;;;;;5128599;27;20289;-80
2022/01/13 07:00:12;;;;;;;10.30;10.00;;;0.80;99.90;;;;;;5127510;27;20638;-79
2022/01/13 07:02:40;;;;;;;10.57;10.27;;;0.80;99.90;;;;;;5126579;27;20294;-80
2022/01/13 07:07:56;;;;;;;10.30;10.00;;;0.80;99.90;;;;;;5121457;28;20319;-86
2022/01/13 07:10:37;;;;;;;10.40;10.10;;;0.80;99.90;;;;;;5121654;28;20241;-87
2022/01/13 07:13:05;;;;;;;10.47;10.17;;;0.80;99.90;;;;;;5120631;28;20296;-86
2022/01/13 07:15:33;;;;;;;10.30;10.00;;;0.80;99.90;;;;;;5121466;28;21058;-87
2022/01/13 07:18:03;;;;;;;10.57;10.27;;;0.90;99.90;;;;;;5129678;27;20243;-86
2022/01/13 07:20:33;;;;;;;10.90;10.60;;;0.90;99.90;;;;;;5129727;28;20245;-87
2022/01/13 07:23:02;;;;;;;10.50;10.20;;;0.90;99.90;;;;;;5121286;28;20221;-87
2022/01/13 07:25:34;;;;;;;10.40;10.10;;;0.90;99.90;;;;;;5121150;28;20232;-87
2022/01/13 07:28:02;;;;;;;10.17;9.87;;;0.90;99.90;;;;;;5129865;27;20217;-85
2022/01/13 07:30:32;;;;;;;10.40;10.10;;;0.90;99.90;;;;;;5139210;27;20236;-85
2022/01/13 07:33:01;;;;;;;10.50;10.20;;;1.00;99.90;;;;;;5128942;28;20299;-88
2022/01/13 07:35:31;;;;;;;10.60;10.30;;;1.00;99.90;;;;;;5123151;27;20229;-87
2022/01/13 07:38:00;;;;;;;10.90;10.60;;;0.90;99.90;;;;;;5122164;28;20231;-88
2022/01/13 07:40:31;;;;;;;10.53;10.23;;;0.90;99.90;;;;;;5130231;27;20221;-87
2022/01/13 07:42:59;;;;;;;10.63;10.33;;;0.90;99.90;;;;;;5139408;27;20228;-85
2022/01/13 07:45:29;;;;;;;10.90;10.60;;;0.90;99.90;;;;;;5131406;27;20208;-88
2022/01/13 07:47:59;;;;;;;10.60;10.30;;;0.90;99.90;;;;;;5121515;28;20228;-87
2022/01/13 07:50:41;;;;;;;10.33;10.03;;;0.90;99.90;;;;;;5121856;28;20237;-87
2022/01/13 07:53:10;;;;;;;10.60;10.30;;;0.90;99.90;;;;;;5121775;27;20247;-86
2022/01/13 07:55:55;;;;;;;10.67;10.37;;;0.90;99.90;;;;;;5121809;28;20355;-86
2022/01/13 07:58:26;;;;;;;10.60;10.30;;;0.90;99.90;;;;;;5120589;27;20229;-86
2022/01/13 08:00:55;;;;;;;10.20;9.90;;;0.90;99.90;;;;;;5124736;28;20288;-86
2022/01/13 08:03:23;;;;;;;10.20;9.90;;;0.90;99.90;;;;;;5123292;28;20243;-85
2022/01/13 08:06:01;;;;;;;10.10;9.80;;;0.80;99.90;;;;;;5124898;27;20217;-87
2022/01/13 08:08:29;;;;;;;10.10;9.80;;;0.80;99.90;;;;;;5124964;28;20294;-85
2022/01/13 08:11:07;;;;;;;10.20;9.90;;;0.70;99.90;;;;;;5134060;27;20221;-85
2022/01/13 08:13:36;;;;;;;10.03;9.73;;;0.70;99.90;;;;;;5124659;28;20232;-87
2022/01/13 08:16:09;;;;;;;10.20;9.90;;;0.60;99.90;;;;;;5122871;28;20232;-86
2022/01/13 08:21:26;;;;;;;10.57;10.27;;;0.60;99.90;;;;;;5125678;28;20228;-86
2022/01/13 08:23:54;;;;;;;10.47;10.17;;;0.60;99.90;;;;;;5125310;28;20284;-85
2022/01/13 08:26:26;;;;;;;10.60;10.30;;;0.60;99.90;;;;;;5125121;28;20302;-85
2022/01/13 08:28:54;;;;;;;10.60;10.30;;;0.60;99.90;;;;;;5124970;28;20260;-85
2022/01/13 08:31:22;;;;;;;10.63;10.33;;;0.60;99.90;;;;;;5124325;27;20243;-85
2022/01/13 08:33:50;;;;;;;10.93;10.63;;;0.60;99.90;;;;;;5122884;28;20235;-85
2022/01/13 08:36:24;;;;;;;10.63;10.33;;;0.60;99.90;;;;;;5122933;28;20229;-87
2022/01/13 08:41:47;;;;;;;10.60;10.30;;;0.70;99.90;;;;;;5138911;27;20232;-82
2022/01/13 08:44:15;;;;;;;10.83;10.53;;;0.70;99.90;;;;;;5126154;28;20236;-83
2022/01/13 08:46:44;;;;;;;10.77;10.47;;;0.80;99.90;;;;;;5124949;28;20220;-83
2022/01/13 08:52:20;;;;;;;10.60;10.30;;;0.90;99.90;;;;;;5120967;28;20236;-86
2022/01/13 08:55:15;;;;;;;10.47;10.17;;;1.00;99.90;;;;;;5124233;28;20259;-88
2022/01/13 09:00:49;;;;;;;9.97;9.67;;;1.10;99.90;;;;;;5226059;27;20544;-85
2022/01/13 09:03:16;;;;;;;9.97;9.67;;;1.20;99.90;;;;;;5194661;27;20274;-83
2022/01/13 09:05:46;;;;;;;9.90;9.60;;;1.30;99.90;;;;;;5184120;27;20227;-85
2022/01/13 09:08:16;;;;;;;10.00;9.70;;;1.40;99.90;;;;;;5183540;27;20211;-86
2022/01/13 09:10:45;;;;;;;9.80;9.50;;;1.40;99.90;;;;;;5183167;27;20231;-83
2022/01/13 09:13:16;;;;;;;9.93;9.63;;;1.50;99.90;;;;;;5184438;27;20234;-82
2022/01/13 09:15:58;;;;;;;9.80;9.50;;;1.50;99.90;;;;;;5187159;27;20234;-84
2022/01/13 09:18:33;;;;;;;9.60;9.30;;;1.50;99.90;;;;;;5189641;27;20211;-83
2022/01/13 09:21:02;;;;;;;9.60;9.30;;;1.40;99.90;;;;;;5191449;27;20237;-84
2022/01/13 09:23:31;;;;;;;9.70;9.40;;;1.40;99.90;;;;;;5191823;27;20210;-83
2022/01/13 09:25:59;;;;;;;9.50;9.20;;;1.40;99.90;;;;;;5194115;27;20275;-83
2022/01/13 09:28:32;;;;;;;9.57;9.27;;;1.50;99.90;;;;;;5197995;27;20237;-85
2022/01/13 09:31:08;;;;;;;9.47;9.17;;;1.50;99.90;;;;;;5195223;27;20222;-86
2022/01/13 09:33:39;;;;;;;9.73;9.43;;;1.50;99.90;;;;;;5194769;27;20252;-83
2022/01/13 09:36:08;;;;;;;9.40;9.10;;;1.60;99.90;;;;;;5187993;27;20219;-85
2022/01/13 09:38:48;;;;;;;9.73;9.43;;;1.60;99.90;;;;;;5183514;27;20267;-84
2022/01/13 09:41:25;;;;;;;9.43;9.13;;;1.60;99.90;;;;;;5185252;27;20230;-85
2022/01/13 09:43:54;;;;;;;9.47;9.17;;;1.70;99.90;;;;;;5183257;27;20229;-85
2022/01/13 09:49:10;;;;;;;9.40;9.10;;;1.60;99.90;;;;;;5185043;27;20223;-85
2022/01/13 09:51:44;;;;;;;9.63;9.33;;;1.60;99.90;;;;;;5184546;27;20713;-85
2022/01/13 09:54:18;;;;;;;9.60;9.30;;;1.70;99.90;;;;;;5184105;27;20230;-86
2022/01/13 09:56:47;;;;;;;9.57;9.27;;;1.70;99.90;;;;;;5185412;27;20223;-84
2022/01/13 09:59:16;;;;;;;9.00;8.80;;;1.80;99.90;;;;;;5185645;27;20223;-84
2022/01/13 10:01:54;;;;;;;9.00;8.80;;;1.80;99.90;;;;;;5185793;27;20234;-82
2022/01/13 10:07:13;;;;;;;8.37;8.17;;;2.00;99.90;;;;;;5185123;27;20222;-84
2022/01/13 10:09:58;;;;;;;8.20;8.00;;;2.20;99.90;;;;;;5198644;27;20217;-83
2022/01/13 10:12:30;;;;;;;8.50;8.30;;;2.40;99.90;;;;;;5183574;27;20211;-84
2022/01/13 10:18:12;;;;;;;8.40;8.20;;;2.40;99.90;;;;;;5169039;27;20239;-86
2022/01/13 10:20:43;;;;;;;8.53;8.33;;;2.40;99.90;;;;;;5166742;27;20230;-87
2022/01/13 10:23:20;;;;;;;9.20;8.90;;;2.40;99.90;;;;;;5166426;27;20267;-86
2022/01/13 10:25:48;;;;;;;8.37;8.17;;;2.50;99.90;;;;;;5173492;27;20215;-84
2022/01/13 10:28:19;;;;;;;8.57;8.37;;;2.60;99.90;;;;;;5174268;27;20231;-84
2022/01/13 10:30:56;;;;;;;8.33;8.13;;;2.70;99.90;;;;;;5174710;27;20253;-84
2022/01/13 10:33:36;;;;;;;8.30;8.10;;;2.80;99.90;;;;;;5153705;27;20224;-85
2022/01/13 10:36:13;;;;;;;8.30;8.10;;;2.80;99.90;;;;;;5161168;27;20242;-85
2022/01/13 10:38:59;;;;;;;8.60;8.40;;;2.90;99.90;;;;;;5171771;27;20242;-85
2022/01/13 10:41:49;;;;;;;8.70;8.50;;;3.00;99.90;;;;;;5156978;27;20226;-88
2022/01/13 10:44:21;;;;;;;8.57;8.37;;;3.20;99.90;;;;;;5172211;27;20299;-85
2022/01/13 10:47:02;;;;;;;8.10;7.90;;;3.30;99.90;;;;;;5172264;27;20230;-84
2022/01/13 10:49:51;;;;;;;8.23;8.03;;;3.30;99.90;;;;;;5157485;27;20262;-84
2022/01/13 10:52:29;;;;;;;8.30;8.10;;;3.30;99.90;;;;;;5163044;27;20215;-82
2022/01/13 10:55:05;;;;;;;8.30;8.10;;;3.30;99.90;;;;;;5181330;27;20199;-81
2022/01/13 10:57:35;;;;;;;8.70;8.50;;;3.60;99.90;;;;;;5154426;27;20275;-84
2022/01/13 11:00:05;;;;;;;8.50;8.30;;;3.90;99.90;;;;;;5156073;27;20227;-84
2022/01/13 11:02:34;;;;;;;8.33;8.13;;;3.90;99.90;;;;;;5167179;27;20260;-85
2022/01/13 11:07:50;;;;;;;8.37;8.17;;;3.60;99.90;;;;;;5165299;27;20257;-85
2022/01/13 11:10:20;;;;;;;8.40;8.20;;;3.40;99.90;;;;;;5180245;27;20227;-83
2022/01/13 11:12:57;;;;;;;8.20;8.00;;;3.40;99.90;;;;;;5182800;27;20228;-84
2022/01/13 11:15:34;;;;;;;8.40;8.20;;;3.50;99.90;;;;;;5174010;27;20227;-86
2022/01/13 11:18:06;;;;;;;8.23;8.03;;;3.30;99.90;;;;;;5166098;27;20233;-85
2022/01/13 11:20:38;;;;;;;8.37;8.17;;;3.10;99.90;;;;;;5167043;27;20274;-84
2022/01/13 11:23:05;;;;;;;8.57;8.37;;;3.10;99.90;;;;;;5163882;27;20235;-85
2022/01/13 11:25:37;;;;;;;8.30;8.10;;;3.20;99.90;;;;;;5167196;27;20239;-85
2022/01/13 11:30:53;;;;;;;8.40;8.20;;;3.20;99.90;;;;;;5166819;27;20227;-85
2022/01/13 11:33:23;;;;;;;8.30;8.10;;;3.30;99.90;;;;;;5167722;27;20227;-85
2022/01/13 11:36:00;;;;;;;8.80;8.60;;;3.60;99.90;;;;;;5168441;27;20234;-84
2022/01/13 11:38:31;;;;;;;8.50;8.30;;;3.90;99.90;;;;;;5169357;27;20233;-84
2022/01/13 11:41:09;;;;;;;8.57;8.37;;;4.20;99.90;;;;;;5167671;27;20227;-86
2022/01/13 11:43:47;;;;;;;8.50;8.30;;;4.30;99.90;;;;;;5167396;27;20249;-83
2022/01/13 11:46:26;;;;;;;8.23;8.03;;;4.40;99.90;;;;;;5168759;27;20219;-84
2022/01/13 11:49:05;;;;;;;8.40;8.20;;;4.30;99.90;;;;;;5168245;27;20238;-83
2022/01/13 11:51:56;;;;;;;8.50;8.30;;;4.20;99.90;;;;;;5152363;27;20226;-84
2022/01/13 11:54:37;;;;;;;8.40;8.20;;;4.20;99.90;;;;;;5166498;27;20223;-84
2022/01/13 11:57:14;;;;;;;8.47;8.27;;;4.40;99.90;;;;;;5177338;27;20238;-83
2022/01/13 12:00:20;;;;;;;8.80;8.60;;;4.50;99.90;;;;;;5174001;27;20291;-82
2022/01/13 12:02:48;;;;;;;8.67;8.47;;;4.70;99.90;;;;;;5169943;27;20292;-84
2022/01/13 12:05:19;;;;;;;8.30;8.10;;;4.80;99.90;;;;;;5169085;27;20292;-84
2022/01/13 12:07:58;;;;;;;7.93;7.73;;;4.90;99.90;;;;;;5169056;27;20288;-85
2022/01/13 12:10:52;;;;;;;7.90;7.70;;;4.80;99.90;;;;;;5170897;27;20219;-84
2022/01/13 12:13:39;;;;;;;7.87;7.67;;;4.60;99.90;;;;;;5169795;27;20227;-85
2022/01/13 12:16:10;;;;;;;7.90;7.70;;;4.30;99.90;;;;;;5169042;27;20276;-84
2022/01/13 12:19:08;;;;;;;8.00;7.80;;;3.70;99.90;;;;;;5169257;27;20231;-84
2022/01/13 12:21:50;;;;;;;7.90;7.70;;;3.50;99.90;;;;;;5169314;27;20227;-84
2022/01/13 12:24:56;;;;;;;8.07;7.87;;;3.40;99.90;;;;;;5168362;27;20238;-84
2022/01/13 12:27:26;;;;;;;8.10;7.90;;;3.30;99.90;;;;;;5168328;27;20227;-84
2022/01/13 12:30:12;;;;;;;8.40;8.20;;;3.30;99.90;;;;;;5167719;27;20288;-84
2022/01/13 12:32:43;;;;;;;8.30;8.10;;;3.50;99.90;;;;;;5167266;27;20236;-85
2022/01/13 12:35:13;;;;;;;8.10;7.90;;;3.80;99.90;;;;;;5167517;27;20292;-85
2022/01/13 12:37:42;;;;;;;8.20;8.00;;;4.00;99.90;;;;;;5168227;27;20226;-85
2022/01/13 12:40:19;;;;;;;7.83;7.63;;;3.80;99.90;;;;;;5166900;27;20231;-85
2022/01/13 12:43:03;;;;;;;8.20;8.00;;;3.60;99.90;;;;;;5166788;27;20234;-85
2022/01/13 12:45:35;;;;;;;8.23;8.03;;;3.50;99.90;;;;;;5167513;27;20318;-85
2022/01/13 12:48:14;;;;;;;8.50;8.30;;;3.60;99.90;;;;;;5167020;27;20231;-85
2022/01/13 12:50:52;;;;;;;8.20;8.00;;;3.60;99.90;;;;;;5165459;27;20232;-88
2022/01/13 12:53:23;;;;;;;8.20;8.00;;;3.60;99.90;;;;;;5165359;27;20251;-86
2022/01/13 12:55:59;;;;;;;8.13;7.93;;;3.60;99.90;;;;;;5153923;22;20300;-83
2022/01/13 12:58:32;;;;;;;7.90;7.70;;;3.60;99.90;;;;;;5099969;28;20221;-84
2022/01/13 13:01:09;;;;;;;8.30;8.10;;;3.60;99.90;;;;;;5101373;28;20290;-84
2022/01/13 13:03:37;;;;;;;8.20;8.00;;;3.30;99.90;;;;;;5109780;28;20225;-84
2022/01/13 13:06:13;;;;;;;8.20;8.00;;;3.10;99.90;;;;;;5102406;28;20279;-84
2022/01/13 13:08:47;;;;;;;8.20;8.00;;;3.00;99.90;;;;;;5101700;28;20217;-84
2022/01/13 13:11:17;;;;;;;8.27;8.07;;;2.90;99.90;;;;;;5100881;28;20221;-85
2022/01/13 13:13:54;;;;;;;8.30;8.10;;;2.90;99.90;;;;;;5102342;28;20225;-84
2022/01/13 13:16:22;;;;;;;8.20;8.00;;;2.90;99.90;;;;;;5101829;28;20221;-85
2022/01/13 13:18:52;;;;;;;8.60;8.40;;;2.80;99.90;;;;;;5102908;28;20221;-84
2022/01/13 13:21:21;;;;;;;8.37;8.17;;;2.80;99.90;;;;;;5102582;28;20328;-86
2022/01/13 13:23:51;;;;;;;8.43;8.23;;;2.80;99.90;;;;;;5100401;28;20688;-84
2022/01/13 13:26:24;;;;;;;8.70;8.50;;;2.90;99.90;;;;;;5101064;28;20256;-84
2022/01/13 13:28:53;;;;;;;8.53;8.33;;;2.90;99.90;;;;;;5102127;28;20291;-84
2022/01/13 13:31:27;;;;;;;8.20;8.00;;;3.00;99.90;;;;;;5100863;28;20229;-84
2022/01/13 13:34:00;;;;;;;8.30;8.10;;;3.00;99.90;;;;;;5093934;28;20240;-84
2022/01/13 13:36:33;;;;;;;8.60;8.40;;;3.00;99.90;;;;;;5100797;28;20272;-83
2022/01/13 13:39:08;;;;;;;8.73;8.53;;;2.90;99.90;;;;;;5101200;28;20281;-84
2022/01/13 13:41:42;;;;;;;8.80;8.60;;;2.90;99.90;;;;;;5101162;28;20300;-84
2022/01/13 13:44:15;;;;;;;8.70;8.50;;;3.00;99.90;;;;;;5100738;28;20217;-84
2022/01/13 13:46:44;;;;;;;8.80;8.60;;;3.00;99.90;;;;;;5103930;28;20303;-85
2022/01/13 13:49:13;;;;;;;8.43;8.23;;;3.10;99.90;;;;;;5105410;28;20222;-84
2022/01/13 13:51:42;;;;;;;8.67;8.47;;;3.10;99.90;;;;;;5104374;28;20260;-86